Time;durP1;ratioP1;P1;durP2;ratioP2;P2;SDS_P1;SDS_P2;PMS_P1;PMS_P2;Temp;Humidity;BMP_temperature;BMP_pressure;BME280_temperature;BME280_humidity;BME280_pressure;Samples;Min_cycle;Max_cycle;Signal;HPM_P1;HPM_P2
2023/08/06 00:01:53;;;;;;;4.00;3.00;;;16.70;99.90;;;;;;5053274;28;20845;-68
2023/08/06 00:04:20;;;;;;;3.80;2.50;;;16.70;99.90;;;;;;5053183;28;20477;-68
2023/08/06 00:06:47;;;;;;;3.30;2.60;;;16.70;99.90;;;;;;5055524;28;20475;-74
2023/08/06 00:09:15;;;;;;;3.30;2.43;;;16.60;99.90;;;;;;5057299;28;20516;-68
2023/08/06 00:11:43;;;;;;;3.90;2.40;;;16.60;99.90;;;;;;5056336;28;20558;-69
2023/08/06 00:14:10;;;;;;;4.13;2.60;;;16.60;99.90;;;;;;5056761;28;20979;-68
2023/08/06 00:16:37;;;;;;;3.20;2.17;;;16.50;99.70;;;;;;5057167;28;20528;-68
2023/08/06 00:19:04;;;;;;;9.27;2.60;;;16.40;99.90;;;;;;5057458;28;20524;-68
2023/08/06 00:21:31;;;;;;;12.27;2.67;;;16.40;99.90;;;;;;5056329;28;20524;-68
2023/08/06 00:23:58;;;;;;;2.73;2.10;;;16.40;99.90;;;;;;5057060;28;20520;-68
2023/08/06 00:26:26;;;;;;;3.60;2.20;;;16.40;99.80;;;;;;5056637;28;20472;-68
2023/08/06 00:28:53;;;;;;;3.80;2.10;;;16.40;99.70;;;;;;5056855;28;20498;-68
2023/08/06 00:31:20;;;;;;;4.53;2.50;;;16.40;99.40;;;;;;5055975;28;20474;-68
2023/08/06 00:33:47;;;;;;;3.07;2.10;;;16.40;99.50;;;;;;5056707;28;20559;-68
2023/08/06 00:36:14;;;;;;;3.80;2.40;;;16.40;99.50;;;;;;5056847;28;20526;-69
2023/08/06 00:38:40;;;;;;;2.87;2.10;;;16.30;99.90;;;;;;5056375;28;20528;-68
2023/08/06 00:41:07;;;;;;;3.47;2.30;;;16.40;99.70;;;;;;5056096;28;20441;-68
2023/08/06 00:43:36;;;;;;;4.33;3.00;;;16.40;99.70;;;;;;5056371;28;20473;-68
2023/08/06 00:46:03;;;;;;;4.07;2.40;;;16.40;99.70;;;;;;5056256;28;20523;-68
2023/08/06 00:48:30;;;;;;;4.17;2.50;;;16.40;99.60;;;;;;5056199;28;20527;-68
2023/08/06 00:50:57;;;;;;;4.10;2.00;;;16.40;99.70;;;;;;5056435;28;21013;-68
2023/08/06 00:53:24;;;;;;;3.30;2.17;;;16.40;99.90;;;;;;5055962;28;21052;-68
2023/08/06 00:55:52;;;;;;;7.80;2.80;;;16.30;99.90;;;;;;5055740;28;21030;-68
2023/08/06 00:58:19;;;;;;;5.23;2.23;;;16.30;99.90;;;;;;5056077;28;20523;-68
2023/08/06 01:00:48;;;;;;;4.43;2.13;;;16.30;99.60;;;;;;5056286;28;20852;-68
2023/08/06 01:03:15;;;;;;;2.70;1.80;;;16.30;99.50;;;;;;5056271;28;20524;-67
2023/08/06 01:05:42;;;;;;;4.00;2.43;;;16.30;99.20;;;;;;5055515;28;20915;-68
2023/08/06 01:08:22;;;;;;;5.70;2.10;;;16.20;98.60;;;;;;5055966;28;20524;-68
2023/08/06 01:11:04;;;;;;;3.60;2.40;;;16.10;98.70;;;;;;5055848;28;20541;-68
2023/08/06 01:13:37;;;;;;;2.87;1.87;;;15.90;99.00;;;;;;5055384;28;21039;-68
2023/08/06 01:16:06;;;;;;;3.47;2.10;;;15.90;99.20;;;;;;5056176;28;20479;-68
2023/08/06 01:18:33;;;;;;;3.50;2.07;;;15.90;98.80;;;;;;5056003;28;20440;-70
2023/08/06 01:21:01;;;;;;;5.63;2.50;;;15.80;99.20;;;;;;5055562;28;20486;-70
2023/08/06 01:23:28;;;;;;;2.70;1.67;;;15.80;99.60;;;;;;5055834;28;20519;-70
2023/08/06 01:26:03;;;;;;;3.27;2.37;;;15.70;99.80;;;;;;5055696;28;20527;-70
2023/08/06 01:28:38;;;;;;;3.33;2.20;;;15.70;99.90;;;;;;5055404;28;20470;-69
2023/08/06 01:31:10;;;;;;;9.63;2.13;;;15.80;99.90;;;;;;5055527;28;20457;-68
2023/08/06 01:33:41;;;;;;;2.73;2.00;;;15.90;99.90;;;;;;5055376;28;20468;-69
2023/08/06 01:36:10;;;;;;;4.87;2.23;;;15.90;99.90;;;;;;5055464;28;20904;-68
2023/08/06 01:38:37;;;;;;;3.07;1.70;;;15.90;99.80;;;;;;5055467;28;20476;-68
2023/08/06 01:41:04;;;;;;;3.70;2.53;;;16.00;99.90;;;;;;5055163;28;20852;-69
2023/08/06 01:43:31;;;;;;;2.70;1.80;;;16.00;99.90;;;;;;5055578;28;20516;-69
2023/08/06 01:45:58;;;;;;;2.90;1.63;;;16.10;99.50;;;;;;5055439;28;20483;-69
2023/08/06 01:48:25;;;;;;;3.47;2.07;;;16.10;99.10;;;;;;5055106;28;20524;-68
2023/08/06 01:50:52;;;;;;;3.13;1.90;;;16.10;98.70;;;;;;5055417;28;20863;-69
2023/08/06 01:53:20;;;;;;;3.70;2.20;;;15.90;98.60;;;;;;5055362;28;20516;-69
2023/08/06 01:55:49;;;;;;;3.80;2.43;;;15.90;98.90;;;;;;5055003;28;20519;-68
2023/08/06 01:58:16;;;;;;;3.00;1.80;;;16.00;98.70;;;;;;5054223;28;20447;-69
2023/08/06 02:00:43;;;;;;;4.93;2.10;;;16.00;98.70;;;;;;5035563;28;20524;-68
2023/08/06 02:03:10;;;;;;;3.20;2.00;;;16.00;99.10;;;;;;5035201;28;21026;-68
2023/08/06 02:05:37;;;;;;;2.73;1.57;;;16.00;99.00;;;;;;5035228;28;20535;-68
2023/08/06 02:08:04;;;;;;;3.03;1.80;;;16.00;99.10;;;;;;5034759;28;20524;-69
2023/08/06 02:10:32;;;;;;;3.53;1.77;;;16.10;99.30;;;;;;5036330;28;20490;-68
2023/08/06 02:12:59;;;;;;;2.90;2.00;;;16.10;99.50;;;;;;5055100;28;20524;-69
2023/08/06 02:15:26;;;;;;;2.97;2.40;;;16.10;99.40;;;;;;5054247;28;21062;-68
2023/08/06 02:17:53;;;;;;;2.97;1.80;;;16.10;99.30;;;;;;5054907;28;20549;-69
2023/08/06 02:20:19;;;;;;;3.60;2.00;;;16.10;99.00;;;;;;5054555;28;20516;-69
2023/08/06 02:22:46;;;;;;;2.63;1.80;;;16.10;98.30;;;;;;5054367;28;20528;-68
2023/08/06 02:25:18;;;;;;;3.00;1.90;;;16.10;98.40;;;;;;5054415;28;20862;-68
2023/08/06 02:27:46;;;;;;;3.90;2.43;;;16.10;98.40;;;;;;5054390;28;20505;-68
2023/08/06 02:30:13;;;;;;;4.27;2.03;;;16.10;98.40;;;;;;5054003;28;20471;-68
2023/08/06 02:32:40;;;;;;;2.80;1.50;;;16.10;98.30;;;;;;5053987;28;21017;-68
2023/08/06 02:35:07;;;;;;;3.57;2.27;;;16.10;98.00;;;;;;5054485;28;20850;-69
2023/08/06 02:37:35;;;;;;;3.27;1.97;;;16.00;97.90;;;;;;5054456;28;20516;-69
2023/08/06 02:40:02;;;;;;;4.20;1.73;;;16.00;97.60;;;;;;5054138;28;20444;-69
2023/08/06 02:42:29;;;;;;;5.13;2.20;;;16.00;97.60;;;;;;5054378;28;20443;-68
2023/08/06 02:44:57;;;;;;;3.10;1.90;;;15.90;97.20;;;;;;5054238;28;20523;-69
2023/08/06 02:47:24;;;;;;;3.60;2.03;;;15.90;97.40;;;;;;5054307;28;20443;-68
2023/08/06 02:49:51;;;;;;;4.20;2.00;;;15.90;97.20;;;;;;5054279;28;20429;-69
2023/08/06 02:52:18;;;;;;;2.47;1.60;;;15.90;97.30;;;;;;5053771;28;20515;-68
2023/08/06 02:54:45;;;;;;;3.53;2.00;;;15.90;97.80;;;;;;5053860;28;20547;-69
2023/08/06 02:57:12;;;;;;;4.60;1.63;;;15.90;97.80;;;;;;5054171;28;20853;-68
2023/08/06 02:59:39;;;;;;;3.37;1.90;;;15.90;98.10;;;;;;5053726;28;20516;-68
2023/08/06 03:02:07;;;;;;;3.03;2.07;;;15.90;97.80;;;;;;5053772;28;20515;-68
2023/08/06 03:04:34;;;;;;;3.40;1.70;;;15.90;98.00;;;;;;5053723;28;20480;-68
2023/08/06 03:07:01;;;;;;;2.70;1.70;;;15.90;97.50;;;;;;5053510;28;20519;-69
2023/08/06 03:09:28;;;;;;;3.60;2.10;;;15.90;97.60;;;;;;5053402;28;20522;-68
2023/08/06 03:11:55;;;;;;;3.37;2.10;;;15.90;97.40;;;;;;5053854;28;20856;-68
2023/08/06 03:14:21;;;;;;;3.50;2.03;;;15.90;97.70;;;;;;5053780;28;20564;-68
2023/08/06 03:16:48;;;;;;;6.23;1.60;;;15.90;97.50;;;;;;5053765;28;20525;-68
2023/08/06 03:19:16;;;;;;;4.20;2.90;;;15.90;97.50;;;;;;5053873;28;20517;-66
2023/08/06 03:21:43;;;;;;;3.63;2.70;;;15.80;97.90;;;;;;5053210;28;21026;-66
2023/08/06 03:24:10;;;;;;;4.00;2.57;;;15.70;98.10;;;;;;5053699;28;20590;-67
2023/08/06 03:26:37;;;;;;;4.50;3.30;;;15.70;98.20;;;;;;5053657;28;20539;-66
2023/08/06 03:29:04;;;;;;;6.47;2.47;;;15.70;98.00;;;;;;5053109;28;20471;-67
2023/08/06 03:31:31;;;;;;;4.97;2.20;;;15.60;98.10;;;;;;5053642;28;20516;-67
2023/08/06 03:33:58;;;;;;;3.20;2.23;;;15.60;98.20;;;;;;5053633;28;20528;-67
2023/08/06 03:36:26;;;;;;;2.97;1.93;;;15.60;98.40;;;;;;5052779;28;20517;-68
2023/08/06 03:38:53;;;;;;;5.27;2.87;;;15.70;98.30;;;;;;5053465;28;20487;-68
2023/08/06 03:41:20;;;;;;;3.90;2.20;;;15.70;98.30;;;;;;5052585;28;20524;-69
2023/08/06 03:43:47;;;;;;;3.40;2.20;;;15.60;98.40;;;;;;5052795;28;20995;-68
2023/08/06 03:46:14;;;;;;;3.63;1.90;;;15.60;98.10;;;;;;5053319;28;20472;-68
2023/08/06 03:48:40;;;;;;;2.60;1.43;;;15.60;98.30;;;;;;5053340;28;20516;-68
2023/08/06 03:51:07;;;;;;;4.10;1.90;;;15.60;98.30;;;;;;5052756;28;20528;-68
2023/08/06 03:53:35;;;;;;;2.87;1.90;;;15.60;98.20;;;;;;5053261;28;20508;-68
2023/08/06 03:56:02;;;;;;;3.13;1.67;;;15.60;98.10;;;;;;5053300;28;20560;-68
2023/08/06 03:58:29;;;;;;;5.90;2.00;;;15.60;98.00;;;;;;5052485;28;20994;-68
2023/08/06 04:01:00;;;;;;;3.77;2.30;;;15.60;97.60;;;;;;5053213;28;20429;-68
2023/08/06 04:03:27;;;;;;;2.47;1.77;;;15.60;97.50;;;;;;5053226;28;20444;-68
2023/08/06 04:05:55;;;;;;;5.00;2.53;;;15.50;97.40;;;;;;5053284;28;20442;-68
2023/08/06 04:08:22;;;;;;;3.10;1.77;;;15.50;97.30;;;;;;5052854;28;20520;-68
2023/08/06 04:10:52;;;;;;;4.17;1.73;;;15.50;97.60;;;;;;5053214;28;21216;-68
2023/08/06 04:13:20;;;;;;;11.97;2.57;;;15.50;97.50;;;;;;5052842;28;20532;-68
2023/08/06 04:15:47;;;;;;;3.00;1.93;;;15.50;97.40;;;;;;5053074;28;20477;-68
2023/08/06 04:18:14;;;;;;;3.30;2.17;;;15.50;97.40;;;;;;5053112;28;20433;-68
2023/08/06 04:20:44;;;;;;;2.87;1.77;;;15.50;97.30;;;;;;5053046;28;20523;-68
2023/08/06 04:23:11;;;;;;;3.90;1.60;;;15.50;97.30;;;;;;5052983;28;20431;-68
2023/08/06 04:25:38;;;;;;;3.20;2.20;;;15.50;97.30;;;;;;5053088;28;20527;-68
2023/08/06 04:28:06;;;;;;;5.37;2.20;;;15.40;97.60;;;;;;5052583;28;20521;-68
2023/08/06 04:30:33;;;;;;;11.00;2.23;;;15.50;98.10;;;;;;5053061;28;20528;-70
2023/08/06 04:33:00;;;;;;;3.50;2.40;;;15.40;97.70;;;;;;5052604;28;20523;-69
2023/08/06 04:35:27;;;;;;;3.80;2.50;;;15.40;97.70;;;;;;5052973;28;20486;-68
2023/08/06 04:37:54;;;;;;;3.47;2.17;;;15.40;97.40;;;;;;5052926;28;20859;-68
2023/08/06 04:40:21;;;;;;;3.40;2.10;;;15.30;97.30;;;;;;5052883;28;20523;-68
2023/08/06 04:42:48;;;;;;;3.80;2.37;;;15.30;97.30;;;;;;5052587;28;20472;-68
2023/08/06 04:45:16;;;;;;;5.07;1.77;;;15.30;97.10;;;;;;5052562;28;20474;-68
2023/08/06 04:47:43;;;;;;;4.90;3.00;;;15.30;97.20;;;;;;5052538;28;20470;-68
2023/08/06 04:50:10;;;;;;;4.17;2.53;;;15.30;97.50;;;;;;5052600;28;20432;-68
2023/08/06 04:52:38;;;;;;;4.53;2.23;;;15.30;97.50;;;;;;5055004;28;20532;-68
2023/08/06 04:55:06;;;;;;;4.20;2.50;;;15.30;97.70;;;;;;5056414;28;20508;-74
2023/08/06 04:57:33;;;;;;;4.97;2.60;;;15.20;97.40;;;;;;5055690;28;20519;-68
2023/08/06 05:00:00;;;;;;;3.57;2.00;;;15.20;97.40;;;;;;5056315;28;20531;-68
2023/08/06 05:02:28;;;;;;;3.50;1.90;;;15.20;97.80;;;;;;5055994;28;20519;-68
2023/08/06 05:04:55;;;;;;;3.53;2.27;;;15.30;97.70;;;;;;5056340;28;20432;-68
2023/08/06 05:07:22;;;;;;;3.10;2.00;;;15.30;97.80;;;;;;5056178;28;20515;-68
2023/08/06 05:09:49;;;;;;;4.17;2.10;;;15.30;97.80;;;;;;5055781;28;20807;-68
2023/08/06 05:12:16;;;;;;;3.67;1.97;;;15.30;98.10;;;;;;5055852;28;20519;-68
2023/08/06 05:14:43;;;;;;;3.57;1.70;;;15.30;98.10;;;;;;5055693;28;22412;-68
2023/08/06 05:17:10;;;;;;;6.30;2.07;;;15.30;98.20;;;;;;5056079;28;20855;-68
2023/08/06 05:19:38;;;;;;;3.80;1.70;;;15.30;98.20;;;;;;5055978;28;20524;-68
2023/08/06 05:22:05;;;;;;;4.90;2.10;;;15.30;98.10;;;;;;5055713;28;20970;-68
2023/08/06 05:24:32;;;;;;;2.83;1.67;;;15.40;98.30;;;;;;5055277;28;20474;-68
2023/08/06 05:26:59;;;;;;;3.17;1.93;;;15.30;98.40;;;;;;5055839;28;20515;-68
2023/08/06 05:29:27;;;;;;;5.17;2.23;;;15.40;98.70;;;;;;5055273;28;20471;-69
2023/08/06 05:31:53;;;;;;;4.43;2.40;;;15.40;98.90;;;;;;5055797;28;20444;-68
2023/08/06 05:34:20;;;;;;;3.07;1.80;;;15.40;98.70;;;;;;5055337;28;20486;-67
2023/08/06 05:36:49;;;;;;;3.27;1.63;;;15.50;98.70;;;;;;5055274;28;21218;-68
2023/08/06 05:39:15;;;;;;;4.53;1.97;;;15.60;99.00;;;;;;5055273;28;20484;-68
2023/08/06 05:41:42;;;;;;;3.80;1.50;;;15.60;99.20;;;;;;5055206;28;20468;-68
2023/08/06 05:44:09;;;;;;;2.90;1.70;;;15.70;99.50;;;;;;5055731;28;20524;-68
2023/08/06 05:46:36;;;;;;;3.40;1.90;;;15.70;99.20;;;;;;5054912;28;20479;-68
2023/08/06 05:49:03;;;;;;;8.50;2.10;;;15.80;99.10;;;;;;5054763;28;20525;-68
2023/08/06 05:51:30;;;;;;;6.57;1.80;;;15.80;99.20;;;;;;5055003;28;20469;-68
2023/08/06 05:53:58;;;;;;;3.17;1.53;;;15.90;99.40;;;;;;5054768;28;20854;-68
2023/08/06 05:56:25;;;;;;;3.63;2.63;;;16.00;99.30;;;;;;5054606;28;21061;-68
2023/08/06 05:58:53;;;;;;;4.10;1.83;;;16.10;98.90;;;;;;5055213;28;20520;-69
2023/08/06 06:01:20;;;;;;;3.30;1.80;;;16.10;98.40;;;;;;5055209;28;20444;-69
2023/08/06 06:03:47;;;;;;;3.30;1.63;;;16.20;98.20;;;;;;5054277;28;20459;-69
2023/08/06 06:06:14;;;;;;;3.40;2.10;;;16.20;97.40;;;;;;5054666;28;20433;-68
2023/08/06 06:08:40;;;;;;;3.03;1.87;;;16.20;97.60;;;;;;5054654;28;20528;-68
2023/08/06 06:11:09;;;;;;;4.10;2.27;;;16.20;96.90;;;;;;5054748;28;21022;-68
2023/08/06 06:13:36;;;;;;;5.17;2.27;;;16.20;96.50;;;;;;5054655;28;20516;-68
2023/08/06 06:16:02;;;;;;;2.87;1.80;;;16.20;96.40;;;;;;5054145;28;21039;-68
2023/08/06 06:18:29;;;;;;;3.60;1.80;;;16.30;96.70;;;;;;5054857;28;20524;-68
2023/08/06 06:20:56;;;;;;;3.83;1.90;;;16.40;97.30;;;;;;5054836;28;20469;-69
2023/08/06 06:23:23;;;;;;;4.50;2.03;;;16.50;98.00;;;;;;5054419;28;20522;-68
2023/08/06 06:25:51;;;;;;;2.70;1.30;;;16.70;98.20;;;;;;5054077;28;20923;-68
2023/08/06 06:28:19;;;;;;;3.90;1.53;;;16.80;97.00;;;;;;5054772;28;20724;-68
2023/08/06 06:30:46;;;;;;;2.47;1.23;;;16.90;96.60;;;;;;5054658;28;20473;-68
2023/08/06 06:33:13;;;;;;;4.50;1.40;;;17.10;96.90;;;;;;5054744;28;20434;-68
2023/08/06 06:35:40;;;;;;;2.60;1.30;;;17.10;94.70;;;;;;5052308;28;20465;-76
2023/08/06 06:38:07;;;;;;;6.00;1.27;;;17.10;93.90;;;;;;5052741;28;20518;-69
2023/08/06 06:40:34;;;;;;;4.00;1.57;;;17.00;93.20;;;;;;5053029;28;20504;-69
2023/08/06 06:43:01;;;;;;;3.30;1.17;;;17.00;91.30;;;;;;5053946;28;20851;-68
2023/08/06 06:45:29;;;;;;;3.77;1.30;;;16.90;91.40;;;;;;5053996;28;20541;-69
2023/08/06 06:47:56;;;;;;;3.07;1.63;;;16.80;91.50;;;;;;5053425;28;20864;-68
2023/08/06 06:50:23;;;;;;;4.33;1.57;;;16.90;92.10;;;;;;5053864;28;20817;-68
2023/08/06 06:52:50;;;;;;;2.57;1.57;;;16.90;91.90;;;;;;5053649;28;20793;-69
2023/08/06 06:55:17;;;;;;;3.97;1.40;;;16.80;91.30;;;;;;5053583;28;20476;-69
2023/08/06 06:57:44;;;;;;;4.40;1.40;;;16.80;91.60;;;;;;5052614;28;20520;-68
2023/08/06 07:00:12;;;;;;;3.30;1.53;;;16.80;92.10;;;;;;5053560;28;20466;-68
2023/08/06 07:02:40;;;;;;;2.20;1.10;;;16.80;92.30;;;;;;5053528;28;20514;-69
2023/08/06 07:05:07;;;;;;;2.73;1.30;;;16.80;92.70;;;;;;5053145;28;20521;-70
2023/08/06 07:07:35;;;;;;;3.40;1.80;;;16.80;93.30;;;;;;5052884;28;20469;-68
2023/08/06 07:10:02;;;;;;;3.50;1.27;;;16.80;93.60;;;;;;5052707;28;20563;-68
2023/08/06 07:12:29;;;;;;;3.50;1.53;;;16.80;94.00;;;;;;5053264;28;20477;-68
2023/08/06 07:14:56;;;;;;;2.57;1.20;;;16.70;94.00;;;;;;5052557;28;20525;-68
2023/08/06 07:17:22;;;;;;;3.80;1.90;;;16.70;94.50;;;;;;5052058;28;20908;-68
2023/08/06 07:19:51;;;;;;;2.07;1.03;;;16.70;94.90;;;;;;5052795;28;20519;-68
2023/08/06 07:22:18;;;;;;;2.67;1.17;;;16.70;95.20;;;;;;5053052;28;20520;-69
2023/08/06 07:24:45;;;;;;;4.13;1.30;;;16.70;95.40;;;;;;5052953;28;20527;-71
2023/08/06 07:27:11;;;;;;;6.10;1.63;;;16.70;95.60;;;;;;5052644;28;20526;-68
2023/08/06 07:29:39;;;;;;;4.43;1.60;;;16.70;95.70;;;;;;5052382;28;20963;-68
2023/08/06 07:32:08;;;;;;;4.30;1.47;;;16.70;95.40;;;;;;5052721;28;20793;-68
2023/08/06 07:34:35;;;;;;;3.23;1.20;;;16.70;95.60;;;;;;5052732;28;20433;-68
2023/08/06 07:37:03;;;;;;;3.17;1.10;;;16.70;95.10;;;;;;5052406;28;20554;-68
2023/08/06 07:39:31;;;;;;;3.30;1.00;;;16.70;94.70;;;;;;5052575;28;20861;-68
2023/08/06 07:41:57;;;;;;;2.53;1.10;;;16.70;94.60;;;;;;5052535;28;20947;-69
2023/08/06 07:44:25;;;;;;;2.87;0.90;;;16.80;94.20;;;;;;5052833;28;20437;-68
2023/08/06 07:46:51;;;;;;;3.00;1.20;;;16.70;93.70;;;;;;5052765;28;20476;-69
2023/08/06 07:49:18;;;;;;;8.43;1.37;;;16.70;94.50;;;;;;5051326;28;20510;-69
2023/08/06 07:51:45;;;;;;;3.07;1.20;;;16.80;93.70;;;;;;5052399;28;20925;-69
2023/08/06 07:54:14;;;;;;;2.87;1.07;;;16.90;94.00;;;;;;5052617;28;20512;-70
2023/08/06 07:56:40;;;;;;;2.83;0.80;;;16.90;93.50;;;;;;5052665;28;20560;-68
2023/08/06 07:59:07;;;;;;;3.17;0.80;;;16.90;94.40;;;;;;5052342;28;20434;-68
2023/08/06 08:01:34;;;;;;;3.37;1.13;;;17.00;94.50;;;;;;5052691;28;20433;-71
2023/08/06 08:04:01;;;;;;;2.63;1.03;;;17.00;91.50;;;;;;5052648;28;20442;-69
2023/08/06 08:06:28;;;;;;;1.93;0.77;;;16.90;92.90;;;;;;5052109;28;20521;-68
2023/08/06 08:08:55;;;;;;;3.70;0.80;;;17.00;91.60;;;;;;5052265;28;20464;-68
2023/08/06 08:11:23;;;;;;;1.90;0.67;;;16.90;90.80;;;;;;5052429;28;20541;-70
2023/08/06 08:13:50;;;;;;;4.03;2.30;;;16.90;92.10;;;;;;5052349;28;20431;-68
2023/08/06 08:16:17;;;;;;;2.40;1.10;;;16.90;91.10;;;;;;5052640;28;20524;-68
2023/08/06 08:18:44;;;;;;;2.57;0.93;;;17.00;90.90;;;;;;5052382;28;20516;-69
2023/08/06 08:21:12;;;;;;;11.93;1.00;;;17.10;90.20;;;;;;5043572;28;20438;-70
2023/08/06 08:23:39;;;;;;;6.07;1.03;;;17.20;89.90;;;;;;5052043;28;20441;-69
2023/08/06 08:26:06;;;;;;;1.97;0.60;;;17.30;90.80;;;;;;5052208;28;20924;-69
2023/08/06 08:28:34;;;;;;;1.80;0.70;;;17.50;88.50;;;;;;5052321;28;20522;-68
2023/08/06 08:31:01;;;;;;;3.03;0.60;;;17.60;87.20;;;;;;5055826;28;20800;-70
2023/08/06 08:33:28;;;;;;;2.40;0.80;;;17.60;86.60;;;;;;5044274;28;20512;-68
2023/08/06 08:35:55;;;;;;;2.13;0.80;;;17.60;85.60;;;;;;5036217;28;20593;-68
2023/08/06 08:38:22;;;;;;;1.87;0.50;;;17.60;85.20;;;;;;5036261;28;20524;-69
2023/08/06 08:40:54;;;;;;;1.63;0.50;;;17.60;85.50;;;;;;5052818;28;20469;-71
2023/08/06 08:43:22;;;;;;;1.93;0.60;;;17.70;86.30;;;;;;5055997;28;20459;-68
2023/08/06 08:45:52;;;;;;;1.80;0.60;;;17.70;84.90;;;;;;5055963;28;20491;-68
2023/08/06 08:48:20;;;;;;;1.80;0.60;;;17.70;82.90;;;;;;5055880;28;20899;-70
2023/08/06 08:50:49;;;;;;;1.80;0.60;;;17.60;82.90;;;;;;5055031;28;20521;-69
2023/08/06 08:53:17;;;;;;;2.00;0.97;;;17.70;82.70;;;;;;5055590;28;20466;-69
2023/08/06 08:55:45;;;;;;;2.03;0.77;;;17.60;82.60;;;;;;5055393;28;20469;-68
2023/08/06 08:58:12;;;;;;;2.73;0.60;;;17.70;83.10;;;;;;5054952;28;20873;-69
2023/08/06 09:00:40;;;;;;;1.60;0.50;;;17.70;81.30;;;;;;5054760;28;20657;-69
2023/08/06 09:03:09;;;;;;;3.23;0.80;;;17.60;80.00;;;;;;5055137;28;20477;-68
2023/08/06 09:05:37;;;;;;;1.60;0.50;;;17.70;80.90;;;;;;5054655;28;20525;-70
2023/08/06 09:08:05;;;;;;;1.70;0.80;;;17.60;81.40;;;;;;5055634;28;20500;-69
2023/08/06 09:10:32;;;;;;;2.30;0.80;;;17.70;81.70;;;;;;5054098;28;20513;-68
2023/08/06 09:13:00;;;;;;;1.70;0.60;;;17.60;81.00;;;;;;5054967;28;20521;-68
2023/08/06 09:15:28;;;;;;;1.90;0.80;;;17.60;80.80;;;;;;5055284;28;20761;-68
2023/08/06 09:17:55;;;;;;;2.10;0.73;;;17.60;79.70;;;;;;5054512;28;20564;-68
2023/08/06 09:20:24;;;;;;;1.80;0.80;;;17.60;81.30;;;;;;5053794;28;20488;-69
2023/08/06 09:22:54;;;;;;;5.30;0.70;;;17.60;81.20;;;;;;5054599;28;20474;-69
2023/08/06 09:25:24;;;;;;;1.70;0.50;;;17.80;83.70;;;;;;5055379;28;20425;-68
2023/08/06 09:27:51;;;;;;;2.63;0.80;;;17.90;80.70;;;;;;5054778;28;20469;-68
2023/08/06 09:30:31;;;;;;;1.60;0.50;;;17.90;81.40;;;;;;5054269;28;20978;-68
2023/08/06 09:32:58;;;;;;;1.70;0.60;;;18.00;81.60;;;;;;5054373;28;20418;-70
2023/08/06 09:35:28;;;;;;;1.93;0.67;;;17.90;80.20;;;;;;5054851;28;20456;-68
2023/08/06 09:37:55;;;;;;;1.60;0.50;;;17.80;80.00;;;;;;5052842;28;20854;-69
2023/08/06 09:40:27;;;;;;;2.20;0.73;;;17.70;80.30;;;;;;5054564;28;20605;-68
2023/08/06 09:42:54;;;;;;;2.00;0.70;;;17.60;79.90;;;;;;5054618;28;20444;-70
2023/08/06 09:45:21;;;;;;;1.90;0.70;;;17.60;82.00;;;;;;5053557;28;20490;-69
2023/08/06 09:47:49;;;;;;;2.20;0.53;;;17.50;81.60;;;;;;5053851;28;20803;-69
2023/08/06 09:50:18;;;;;;;2.23;1.00;;;17.40;82.80;;;;;;5053711;28;20445;-68
2023/08/06 09:52:47;;;;;;;1.60;0.50;;;17.30;83.50;;;;;;5054797;28;20442;-68
2023/08/06 09:55:15;;;;;;;2.37;0.67;;;17.30;85.80;;;;;;5054439;28;20438;-69
2023/08/06 09:57:43;;;;;;;1.90;0.70;;;17.50;85.50;;;;;;5054276;28;20478;-68
2023/08/06 10:00:11;;;;;;;1.70;0.60;;;17.50;84.90;;;;;;5054426;28;20952;-69
2023/08/06 10:02:39;;;;;;;1.80;0.70;;;17.50;85.10;;;;;;5054980;28;20849;-68
2023/08/06 10:05:07;;;;;;;2.07;0.60;;;17.60;87.00;;;;;;5054614;28;20426;-69
2023/08/06 10:07:36;;;;;;;2.00;0.50;;;17.50;86.10;;;;;;5053733;28;20474;-68
2023/08/06 10:10:06;;;;;;;1.83;0.60;;;17.50;87.60;;;;;;5052070;28;20558;-69
2023/08/06 10:12:35;;;;;;;1.90;0.93;;;17.50;88.00;;;;;;5053501;28;20532;-69
2023/08/06 10:15:07;;;;;;;1.60;0.60;;;17.40;90.00;;;;;;5054212;28;20473;-68
2023/08/06 10:17:36;;;;;;;2.20;0.60;;;17.40;88.80;;;;;;5053854;28;20553;-69
2023/08/06 10:20:06;;;;;;;1.67;0.60;;;17.50;89.60;;;;;;5053998;28;20528;-69
2023/08/06 10:22:34;;;;;;;2.20;0.70;;;17.50;88.60;;;;;;5053862;28;20434;-68
2023/08/06 10:25:04;;;;;;;1.60;0.50;;;17.50;88.00;;;;;;5054242;28;20533;-68
2023/08/06 10:27:34;;;;;;;1.63;0.57;;;17.40;90.20;;;;;;5053120;28;20520;-70
2023/08/06 10:30:22;;;;;;;1.90;0.70;;;17.50;90.10;;;;;;5054314;28;20445;-68
2023/08/06 10:32:50;;;;;;;1.60;0.50;;;17.40;89.80;;;;;;5051665;28;20873;-68
2023/08/06 10:35:35;;;;;;;2.40;0.70;;;17.50;89.00;;;;;;5053980;28;20429;-68
2023/08/06 10:38:08;;;;;;;1.60;0.57;;;17.50;88.30;;;;;;5053538;28;20505;-68
2023/08/06 10:40:36;;;;;;;1.70;0.50;;;17.60;90.10;;;;;;5053876;28;20438;-68
2023/08/06 10:43:06;;;;;;;1.80;0.70;;;17.70;90.50;;;;;;5052457;28;20471;-69
2023/08/06 10:45:36;;;;;;;1.60;0.50;;;17.80;90.50;;;;;;5053245;28;20513;-68
2023/08/06 10:48:04;;;;;;;1.87;0.50;;;17.70;90.50;;;;;;5053296;28;20465;-68
2023/08/06 10:50:32;;;;;;;1.93;1.00;;;17.60;89.00;;;;;;5053221;28;20947;-69
2023/08/06 10:53:06;;;;;;;1.70;0.60;;;17.50;89.20;;;;;;5053233;28;20473;-69
2023/08/06 10:55:33;;;;;;;1.70;0.60;;;17.50;88.80;;;;;;5053758;28;20824;-68
2023/08/06 10:58:00;;;;;;;2.30;0.70;;;17.30;90.00;;;;;;5053148;28;21000;-70
2023/08/06 11:00:28;;;;;;;2.80;0.60;;;17.10;89.60;;;;;;5052682;28;20445;-68
2023/08/06 11:02:55;;;;;;;2.07;0.67;;;17.00;90.80;;;;;;5052867;28;20481;-68
2023/08/06 11:05:22;;;;;;;1.80;0.60;;;16.90;91.40;;;;;;5053523;28;20433;-68
2023/08/06 11:07:51;;;;;;;1.70;0.73;;;16.90;91.40;;;;;;5052691;28;20963;-69
2023/08/06 11:10:18;;;;;;;1.70;0.70;;;16.90;91.90;;;;;;5052936;28;20834;-68
2023/08/06 11:12:45;;;;;;;2.83;0.80;;;16.80;91.20;;;;;;5052542;28;20476;-68
2023/08/06 11:15:12;;;;;;;2.20;0.90;;;16.70;91.80;;;;;;5052936;28;20487;-70
2023/08/06 11:17:43;;;;;;;5.03;2.57;;;16.80;92.70;;;;;;5053008;28;20481;-70
2023/08/06 11:20:10;;;;;;;7.40;2.60;;;16.60;93.00;;;;;;5053246;28;20793;-68
2023/08/06 11:22:41;;;;;;;1.97;0.90;;;16.70;92.60;;;;;;5035277;28;20500;-68
2023/08/06 11:25:09;;;;;;;1.70;0.50;;;16.70;92.50;;;;;;5045283;28;20889;-74
2023/08/06 11:27:37;;;;;;;1.70;0.60;;;16.80;92.20;;;;;;5052417;28;20544;-70
2023/08/06 11:30:05;;;;;;;1.60;0.60;;;16.80;92.50;;;;;;5052841;28;20842;-68
2023/08/06 11:32:33;;;;;;;1.90;0.80;;;16.70;92.20;;;;;;5052096;28;20442;-69
2023/08/06 11:35:11;;;;;;;1.77;0.60;;;16.70;92.50;;;;;;5050997;28;20457;-69
2023/08/06 11:37:40;;;;;;;2.00;0.60;;;16.50;92.70;;;;;;5049397;28;20561;-69
2023/08/06 11:40:11;;;;;;;2.90;0.60;;;16.40;93.00;;;;;;5052243;28;20612;-71
2023/08/06 11:42:38;;;;;;;1.80;0.77;;;16.40;93.50;;;;;;5052311;28;20766;-68
2023/08/06 11:45:06;;;;;;;1.80;0.60;;;16.50;93.90;;;;;;5052079;28;20449;-69
2023/08/06 11:47:33;;;;;;;1.60;0.60;;;16.60;92.70;;;;;;5051607;28;20973;-70
2023/08/06 11:50:04;;;;;;;1.80;0.60;;;16.60;93.00;;;;;;5052337;28;20441;-69
2023/08/06 11:52:32;;;;;;;2.10;1.00;;;16.40;92.90;;;;;;5052327;28;20460;-69
2023/08/06 11:55:06;;;;;;;1.80;0.70;;;16.50;93.20;;;;;;5052124;28;20433;-68
2023/08/06 11:57:35;;;;;;;1.73;0.70;;;16.60;93.90;;;;;;5051880;28;20564;-68
2023/08/06 12:00:06;;;;;;;2.00;0.60;;;16.70;95.00;;;;;;5051855;28;21264;-69
2023/08/06 12:02:36;;;;;;;1.70;0.60;;;16.70;93.20;;;;;;5054400;28;20936;-71
2023/08/06 12:05:11;;;;;;;3.13;0.70;;;16.70;93.60;;;;;;5056257;28;20468;-68
2023/08/06 12:07:43;;;;;;;1.80;0.70;;;16.80;95.30;;;;;;5055243;28;20746;-68
2023/08/06 12:10:11;;;;;;;1.90;0.60;;;16.80;93.10;;;;;;5055882;28;20472;-68
2023/08/06 12:12:39;;;;;;;1.60;0.50;;;16.90;93.30;;;;;;5055978;28;20432;-69
2023/08/06 12:15:07;;;;;;;1.70;0.63;;;17.10;92.80;;;;;;5056214;28;20872;-68
2023/08/06 12:17:34;;;;;;;1.60;0.60;;;17.10;92.00;;;;;;5055056;28;20474;-69
2023/08/06 12:20:05;;;;;;;2.30;0.80;;;17.10;92.30;;;;;;5055662;28;20438;-68
2023/08/06 12:22:37;;;;;;;2.00;0.60;;;17.20;93.20;;;;;;5055992;28;20422;-68
2023/08/06 12:25:07;;;;;;;1.90;0.80;;;17.30;92.40;;;;;;5055821;28;20439;-68
2023/08/06 12:27:34;;;;;;;1.80;0.67;;;17.50;92.40;;;;;;5055527;28;20464;-69
2023/08/06 12:30:03;;;;;;;2.50;1.20;;;17.60;91.50;;;;;;5055572;28;20434;-69
2023/08/06 12:32:30;;;;;;;1.90;0.73;;;17.50;90.60;;;;;;5054796;28;20437;-70
2023/08/06 12:34:57;;;;;;;2.10;0.70;;;17.60;92.30;;;;;;5055276;28;20457;-69
2023/08/06 12:37:25;;;;;;;2.00;0.53;;;17.70;91.80;;;;;;5055324;28;20473;-69
2023/08/06 12:39:54;;;;;;;2.47;0.67;;;17.80;90.20;;;;;;5055484;28;20435;-69
2023/08/06 12:42:24;;;;;;;1.50;0.47;;;17.80;87.70;;;;;;5055648;28;20434;-70
2023/08/06 12:44:56;;;;;;;1.90;0.60;;;17.90;88.20;;;;;;5055222;28;20442;-68
2023/08/06 12:47:23;;;;;;;6.37;0.60;;;18.00;90.00;;;;;;5052334;28;20427;-70
2023/08/06 12:49:51;;;;;;;1.70;0.50;;;18.10;90.10;;;;;;5055585;28;20482;-71